createdAt,value
2023-05-21T00:05:09.381Z,1012.01
2023-05-21T00:33:53.322Z,1011.91
2023-05-21T01:32:28.560Z,1011.79
2023-05-21T02:01:21.182Z,1011.65
2023-05-21T02:30:13.167Z,1011.55
2023-05-21T02:59:09.230Z,1011.48
2023-05-21T03:28:12.978Z,1011.61
2023-05-21T03:57:05.733Z,1011.9
2023-05-21T04:26:01.745Z,1012.1
2023-05-21T04:55:02.432Z,1012.09
2023-05-21T05:52:59.161Z,1012.11
2023-05-21T06:22:00.741Z,1012.04
2023-05-21T06:51:02.582Z,1012.05
2023-05-21T07:20:06.293Z,1012.11
2023-05-21T07:49:00.221Z,1012.03
2023-05-21T08:17:49.003Z,1011.98
2023-05-21T08:46:45.893Z,1011.76
2023-05-21T09:15:23.130Z,1011.82
2023-05-21T10:13:24.678Z,1011.63
2023-05-21T10:42:03.039Z,1011.41
2023-05-21T11:10:29.919Z,1011.38
2023-05-21T11:39:19.449Z,1011.21
2023-05-21T12:08:02.039Z,1011.19
2023-05-21T12:36:45.513Z,1011.07
2023-05-21T13:05:36.597Z,1010.95
2023-05-21T13:34:06.749Z,1010.84
2023-05-21T14:02:46.916Z,1010.67
2023-05-21T14:31:21.659Z,1010.4
2023-05-21T15:00:24.760Z,1010.5
2023-05-21T15:28:40.024Z,1010.58
2023-05-21T15:57:18.083Z,1010.77
2023-05-21T16:25:41.645Z,1010.99
2023-05-21T16:54:35.680Z,1011.11
2023-05-21T17:22:50.320Z,1011.18
2023-05-21T17:51:25.664Z,1011.32
2023-05-21T18:20:07.917Z,1011.3
2023-05-21T18:48:27.691Z,1011.32
2023-05-21T19:17:02.076Z,1011.54
2023-05-21T19:45:53.029Z,1011.82
2023-05-21T20:14:49.039Z,1012.09
2023-05-21T20:43:50.725Z,1012.22
2023-05-21T21:12:33.831Z,1012.18
2023-05-21T21:41:09.092Z,1012.34
2023-05-21T22:09:59.070Z,1012.36
2023-05-21T22:38:25.930Z,1012.46
2023-05-21T23:07:09.036Z,1012.37
2023-05-21T23:35:35.627Z,1012.3
